sensor_id;sensor_type;location;lat;lon;timestamp;temperature;humidity
55648;DHT22;45266;48.756;9.246;2024-02-15T00:00:58;8.10;91.60
55648;DHT22;45266;48.756;9.246;2024-02-15T00:06:01;8.00;91.90
55648;DHT22;45266;48.756;9.246;2024-02-15T00:11:03;8.00;92.00
55648;DHT22;45266;48.756;9.246;2024-02-15T00:16:05;8.00;92.50
55648;DHT22;45266;48.756;9.246;2024-02-15T00:21:07;8.00;92.60
55648;DHT22;45266;48.756;9.246;2024-02-15T00:26:09;8.00;92.90
55648;DHT22;45266;48.756;9.246;2024-02-15T00:31:14;8.00;92.90
55648;DHT22;45266;48.756;9.246;2024-02-15T00:36:15;8.00;93.20
55648;DHT22;45266;48.756;9.246;2024-02-15T00:41:17;8.00;93.20
55648;DHT22;45266;48.756;9.246;2024-02-15T00:46:23;8.00;93.00
55648;DHT22;45266;48.756;9.246;2024-02-15T00:51:24;8.00;93.30
55648;DHT22;45266;48.756;9.246;2024-02-15T00:56:26;8.00;93.10
55648;DHT22;45266;48.756;9.246;2024-02-15T01:01:29;8.00;93.10
55648;DHT22;45266;48.756;9.246;2024-02-15T01:06:31;8.00;93.00
55648;DHT22;45266;48.756;9.246;2024-02-15T01:11:33;8.00;93.40
55648;DHT22;45266;48.756;9.246;2024-02-15T01:16:36;8.00;93.30
55648;DHT22;45266;48.756;9.246;2024-02-15T01:21:38;8.00;93.30
55648;DHT22;45266;48.756;9.246;2024-02-15T01:26:40;8.00;93.20
55648;DHT22;45266;48.756;9.246;2024-02-15T01:31:43;8.00;93.10
55648;DHT22;45266;48.756;9.246;2024-02-15T01:36:48;8.00;93.10
55648;DHT22;45266;48.756;9.246;2024-02-15T01:41:49;7.90;92.60
55648;DHT22;45266;48.756;9.246;2024-02-15T01:46:58;7.80;92.30
55648;DHT22;45266;48.756;9.246;2024-02-15T01:52:01;7.60;92.70
55648;DHT22;45266;48.756;9.246;2024-02-15T01:57:04;7.50;92.60
55648;DHT22;45266;48.756;9.246;2024-02-15T02:02:08;7.40;92.90
55648;DHT22;45266;48.756;9.246;2024-02-15T02:07:12;7.30;92.90
55648;DHT22;45266;48.756;9.246;2024-02-15T02:12:16;7.10;93.30
55648;DHT22;45266;48.756;9.246;2024-02-15T02:17:19;7.00;93.70
55648;DHT22;45266;48.756;9.246;2024-02-15T02:22:21;6.90;93.30
55648;DHT22;45266;48.756;9.246;2024-02-15T02:27:24;6.70;93.50
55648;DHT22;45266;48.756;9.246;2024-02-15T02:32:28;6.60;94.00
55648;DHT22;45266;48.756;9.246;2024-02-15T02:37:30;6.50;94.10
55648;DHT22;45266;48.756;9.246;2024-02-15T02:42:32;6.50;94.20
55648;DHT22;45266;48.756;9.246;2024-02-15T02:47:34;6.40;93.70
55648;DHT22;45266;48.756;9.246;2024-02-15T02:52:36;6.20;93.50
55648;DHT22;45266;48.756;9.246;2024-02-15T02:57:40;6.10;93.90
55648;DHT22;45266;48.756;9.246;2024-02-15T03:02:45;6.00;94.10
55648;DHT22;45266;48.756;9.246;2024-02-15T03:07:47;5.90;94.70
55648;DHT22;45266;48.756;9.246;2024-02-15T03:12:50;5.90;94.60
55648;DHT22;45266;48.756;9.246;2024-02-15T03:17:52;5.70;94.40
55648;DHT22;45266;48.756;9.246;2024-02-15T03:22:55;5.60;94.40
55648;DHT22;45266;48.756;9.246;2024-02-15T03:27:58;5.50;94.20
55648;DHT22;45266;48.756;9.246;2024-02-15T03:33:01;5.50;94.10
55648;DHT22;45266;48.756;9.246;2024-02-15T03:38:05;5.40;94.20
55648;DHT22;45266;48.756;9.246;2024-02-15T03:43:08;5.30;94.10
55648;DHT22;45266;48.756;9.246;2024-02-15T03:48:10;5.30;94.80
55648;DHT22;45266;48.756;9.246;2024-02-15T03:53:12;5.30;95.00
55648;DHT22;45266;48.756;9.246;2024-02-15T03:58:15;5.20;95.20
55648;DHT22;45266;48.756;9.246;2024-02-15T04:03:17;5.10;95.40
55648;DHT22;45266;48.756;9.246;2024-02-15T04:08:19;5.00;95.20
55648;DHT22;45266;48.756;9.246;2024-02-15T04:13:21;5.00;95.20
55648;DHT22;45266;48.756;9.246;2024-02-15T04:18:23;5.00;95.50
55648;DHT22;45266;48.756;9.246;2024-02-15T04:23:25;5.00;95.80
55648;DHT22;45266;48.756;9.246;2024-02-15T04:28:26;5.00;96.20
55648;DHT22;45266;48.756;9.246;2024-02-15T04:33:28;5.10;96.50
55648;DHT22;45266;48.756;9.246;2024-02-15T04:38:30;5.10;96.90
55648;DHT22;45266;48.756;9.246;2024-02-15T04:43:32;5.30;97.30
55648;DHT22;45266;48.756;9.246;2024-02-15T04:48:35;5.30;97.30
55648;DHT22;45266;48.756;9.246;2024-02-15T04:53:37;5.50;97.70
55648;DHT22;45266;48.756;9.246;2024-02-15T04:58:41;5.50;97.90
55648;DHT22;45266;48.756;9.246;2024-02-15T05:03:47;5.60;98.00
55648;DHT22;45266;48.756;9.246;2024-02-15T05:08:49;5.80;98.00
55648;DHT22;45266;48.756;9.246;2024-02-15T05:13:51;5.80;98.00
55648;DHT22;45266;48.756;9.246;2024-02-15T05:18:53;5.90;98.10
55648;DHT22;45266;48.756;9.246;2024-02-15T05:23:55;6.00;98.20
55648;DHT22;45266;48.756;9.246;2024-02-15T05:28:59;6.00;98.20
55648;DHT22;45266;48.756;9.246;2024-02-15T05:34:01;6.10;98.30
55648;DHT22;45266;48.756;9.246;2024-02-15T05:39:03;6.10;98.20
55648;DHT22;45266;48.756;9.246;2024-02-15T05:44:06;6.20;98.20
55648;DHT22;45266;48.756;9.246;2024-02-15T05:49:09;6.30;98.30
55648;DHT22;45266;48.756;9.246;2024-02-15T05:54:16;6.30;98.30
55648;DHT22;45266;48.756;9.246;2024-02-15T05:59:20;6.30;98.10
55648;DHT22;45266;48.756;9.246;2024-02-15T06:04:23;6.30;97.50
55648;DHT22;45266;48.756;9.246;2024-02-15T06:09:25;6.20;97.30
55648;DHT22;45266;48.756;9.246;2024-02-15T06:14:29;6.20;97.30
55648;DHT22;45266;48.756;9.246;2024-02-15T06:19:31;6.20;97.20
55648;DHT22;45266;48.756;9.246;2024-02-15T06:24:34;6.20;97.30
55648;DHT22;45266;48.756;9.246;2024-02-15T06:29:36;6.30;97.30
55648;DHT22;45266;48.756;9.246;2024-02-15T06:34:58;6.20;97.00
55648;DHT22;45266;48.756;9.246;2024-02-15T06:40:19;6.20;96.80
55648;DHT22;45266;48.756;9.246;2024-02-15T06:45:21;6.20;96.50
55648;DHT22;45266;48.756;9.246;2024-02-15T06:50:23;6.10;96.10
55648;DHT22;45266;48.756;9.246;2024-02-15T06:55:26;6.00;95.70
55648;DHT22;45266;48.756;9.246;2024-02-15T07:00:28;6.00;95.70
55648;DHT22;45266;48.756;9.246;2024-02-15T07:05:32;6.00;95.60
55648;DHT22;45266;48.756;9.246;2024-02-15T07:10:37;5.90;95.50
55648;DHT22;45266;48.756;9.246;2024-02-15T07:15:40;5.90;95.30
55648;DHT22;45266;48.756;9.246;2024-02-15T07:20:45;5.80;95.40
55648;DHT22;45266;48.756;9.246;2024-02-15T07:25:54;5.90;95.50
55648;DHT22;45266;48.756;9.246;2024-02-15T07:30:56;5.90;95.60
55648;DHT22;45266;48.756;9.246;2024-02-15T07:35:58;6.00;95.90
55648;DHT22;45266;48.756;9.246;2024-02-15T07:41:00;6.10;95.80
55648;DHT22;45266;48.756;9.246;2024-02-15T07:46:02;6.30;96.40
55648;DHT22;45266;48.756;9.246;2024-02-15T07:51:04;6.60;95.50
55648;DHT22;45266;48.756;9.246;2024-02-15T07:56:08;6.90;94.40
55648;DHT22;45266;48.756;9.246;2024-02-15T08:01:12;7.20;93.10
55648;DHT22;45266;48.756;9.246;2024-02-15T08:06:16;7.50;92.10
55648;DHT22;45266;48.756;9.246;2024-02-15T08:11:19;7.60;90.50
55648;DHT22;45266;48.756;9.246;2024-02-15T08:16:23;7.80;88.70
55648;DHT22;45266;48.756;9.246;2024-02-15T08:21:31;8.00;87.40
55648;DHT22;45266;48.756;9.246;2024-02-15T08:26:41;8.10;86.90
55648;DHT22;45266;48.756;9.246;2024-02-15T08:31:44;8.30;86.00
55648;DHT22;45266;48.756;9.246;2024-02-15T08:36:46;8.50;85.10
55648;DHT22;45266;48.756;9.246;2024-02-15T08:41:50;8.60;84.40
55648;DHT22;45266;48.756;9.246;2024-02-15T08:46:54;8.70;83.70
55648;DHT22;45266;48.756;9.246;2024-02-15T08:51:57;8.90;83.10
55648;DHT22;45266;48.756;9.246;2024-02-15T08:57:01;9.00;82.30
55648;DHT22;45266;48.756;9.246;2024-02-15T09:02:04;9.20;81.90
55648;DHT22;45266;48.756;9.246;2024-02-15T09:07:10;9.30;80.80
55648;DHT22;45266;48.756;9.246;2024-02-15T09:12:13;9.40;80.50
55648;DHT22;45266;48.756;9.246;2024-02-15T09:17:16;9.50;80.30
55648;DHT22;45266;48.756;9.246;2024-02-15T09:22:18;9.70;79.60
55648;DHT22;45266;48.756;9.246;2024-02-15T09:27:29;9.80;79.00
55648;DHT22;45266;48.756;9.246;2024-02-15T09:32:31;10.00;78.00
55648;DHT22;45266;48.756;9.246;2024-02-15T09:37:45;10.00;77.20
55648;DHT22;45266;48.756;9.246;2024-02-15T09:42:47;10.00;77.20
55648;DHT22;45266;48.756;9.246;2024-02-15T09:47:49;10.00;77.10
55648;DHT22;45266;48.756;9.246;2024-02-15T09:52:53;10.20;77.00
55648;DHT22;45266;48.756;9.246;2024-02-15T09:57:56;10.30;76.20
55648;DHT22;45266;48.756;9.246;2024-02-15T10:03:00;10.40;75.90
55648;DHT22;45266;48.756;9.246;2024-02-15T10:08:03;10.50;75.30
55648;DHT22;45266;48.756;9.246;2024-02-15T10:13:05;10.60;74.90
55648;DHT22;45266;48.756;9.246;2024-02-15T10:18:09;10.80;74.60
55648;DHT22;45266;48.756;9.246;2024-02-15T10:23:16;10.90;74.10
55648;DHT22;45266;48.756;9.246;2024-02-15T10:28:21;11.00;73.00
55648;DHT22;45266;48.756;9.246;2024-02-15T10:33:29;11.10;71.80
55648;DHT22;45266;48.756;9.246;2024-02-15T10:38:32;11.40;71.50
55648;DHT22;45266;48.756;9.246;2024-02-15T10:43:34;11.50;70.70
55648;DHT22;45266;48.756;9.246;2024-02-15T10:48:39;11.70;70.40
55648;DHT22;45266;48.756;9.246;2024-02-15T10:53:47;11.80;69.20
55648;DHT22;45266;48.756;9.246;2024-02-15T10:59:16;11.90;68.20
55648;DHT22;45266;48.756;9.246;2024-02-15T11:04:20;12.10;67.60
55648;DHT22;45266;48.756;9.246;2024-02-15T11:09:28;12.40;66.50
55648;DHT22;45266;48.756;9.246;2024-02-15T11:14:31;12.50;64.40
55648;DHT22;45266;48.756;9.246;2024-02-15T11:24:48;12.90;62.30
55648;DHT22;45266;48.756;9.246;2024-02-15T11:29:58;13.00;62.20
55648;DHT22;45266;48.756;9.246;2024-02-15T11:35:08;13.20;61.90
55648;DHT22;45266;48.756;9.246;2024-02-15T11:40:16;13.20;61.70
55648;DHT22;45266;48.756;9.246;2024-02-15T11:45:19;13.30;61.40
55648;DHT22;45266;48.756;9.246;2024-02-15T11:50:22;13.50;61.20
55648;DHT22;45266;48.756;9.246;2024-02-15T11:55:24;13.60;61.30
55648;DHT22;45266;48.756;9.246;2024-02-15T12:00:29;13.70;61.40
55648;DHT22;45266;48.756;9.246;2024-02-15T12:05:50;13.90;60.60
55648;DHT22;45266;48.756;9.246;2024-02-15T12:11:14;14.10;60.60
55648;DHT22;45266;48.756;9.246;2024-02-15T12:16:35;14.50;59.40
55648;DHT22;45266;48.756;9.246;2024-02-15T12:21:57;15.00;58.90
55648;DHT22;45266;48.756;9.246;2024-02-15T12:27:00;15.40;57.40
55648;DHT22;45266;48.756;9.246;2024-02-15T12:32:05;15.60;56.10
55648;DHT22;45266;48.756;9.246;2024-02-15T12:37:07;15.80;55.50
55648;DHT22;45266;48.756;9.246;2024-02-15T12:42:11;15.80;55.50
55648;DHT22;45266;48.756;9.246;2024-02-15T12:47:22;15.70;55.00
55648;DHT22;45266;48.756;9.246;2024-02-15T12:52:38;15.60;55.20
55648;DHT22;45266;48.756;9.246;2024-02-15T12:57:42;15.50;54.60
55648;DHT22;45266;48.756;9.246;2024-02-15T13:02:48;15.50;55.20
55648;DHT22;45266;48.756;9.246;2024-02-15T13:07:53;15.70;54.80
55648;DHT22;45266;48.756;9.246;2024-02-15T13:12:58;15.80;54.40
55648;DHT22;45266;48.756;9.246;2024-02-15T13:18:00;15.90;54.00
55648;DHT22;45266;48.756;9.246;2024-02-15T13:23:09;16.00;53.80
55648;DHT22;45266;48.756;9.246;2024-02-15T13:28:12;16.00;53.10
55648;DHT22;45266;48.756;9.246;2024-02-15T13:33:15;16.00;53.50
55648;DHT22;45266;48.756;9.246;2024-02-15T13:38:18;16.00;54.80
55648;DHT22;45266;48.756;9.246;2024-02-15T13:43:27;16.00;52.90
55648;DHT22;45266;48.756;9.246;2024-02-15T13:48:31;16.00;53.60
55648;DHT22;45266;48.756;9.246;2024-02-15T13:53:33;16.00;53.30
55648;DHT22;45266;48.756;9.246;2024-02-15T13:58:37;16.00;52.90
55648;DHT22;45266;48.756;9.246;2024-02-15T14:03:40;16.00;53.40
55648;DHT22;45266;48.756;9.246;2024-02-15T14:08:43;16.00;53.30
55648;DHT22;45266;48.756;9.246;2024-02-15T14:13:45;16.00;53.80
55648;DHT22;45266;48.756;9.246;2024-02-15T14:18:47;16.00;53.70
55648;DHT22;45266;48.756;9.246;2024-02-15T14:23:51;16.10;53.50
55648;DHT22;45266;48.756;9.246;2024-02-15T14:28:53;16.00;53.70
55648;DHT22;45266;48.756;9.246;2024-02-15T14:33:56;16.00;53.30
55648;DHT22;45266;48.756;9.246;2024-02-15T14:38:58;16.00;54.90
55648;DHT22;45266;48.756;9.246;2024-02-15T14:44:01;16.10;56.20
55648;DHT22;45266;48.756;9.246;2024-02-15T14:49:02;16.00;53.90
55648;DHT22;45266;48.756;9.246;2024-02-15T14:54:05;16.00;54.80
55648;DHT22;45266;48.756;9.246;2024-02-15T14:59:07;16.00;57.20
55648;DHT22;45266;48.756;9.246;2024-02-15T15:04:09;16.00;54.80
55648;DHT22;45266;48.756;9.246;2024-02-15T15:09:13;16.00;56.20
55648;DHT22;45266;48.756;9.246;2024-02-15T15:14:34;16.00;57.40
55648;DHT22;45266;48.756;9.246;2024-02-15T15:19:36;15.90;57.10
55648;DHT22;45266;48.756;9.246;2024-02-15T15:24:39;15.80;57.60
55648;DHT22;45266;48.756;9.246;2024-02-15T15:29:40;15.80;55.30
55648;DHT22;45266;48.756;9.246;2024-02-15T15:34:42;15.80;56.70
55648;DHT22;45266;48.756;9.246;2024-02-15T15:39:44;15.70;59.70
55648;DHT22;45266;48.756;9.246;2024-02-15T15:44:47;15.50;59.50
55648;DHT22;45266;48.756;9.246;2024-02-15T15:49:49;15.30;61.10
55648;DHT22;45266;48.756;9.246;2024-02-15T15:54:54;15.00;61.20
55648;DHT22;45266;48.756;9.246;2024-02-15T15:59:57;14.80;62.70
55648;DHT22;45266;48.756;9.246;2024-02-15T16:04:59;14.70;63.90
55648;DHT22;45266;48.756;9.246;2024-02-15T16:10:03;14.50;64.20
55648;DHT22;45266;48.756;9.246;2024-02-15T16:15:10;14.30;64.50
55648;DHT22;45266;48.756;9.246;2024-02-15T16:20:14;14.10;65.10
55648;DHT22;45266;48.756;9.246;2024-02-15T16:25:16;13.80;65.70
55648;DHT22;45266;48.756;9.246;2024-02-15T16:30:19;13.60;67.20
55648;DHT22;45266;48.756;9.246;2024-02-15T16:35:21;13.30;67.00
55648;DHT22;45266;48.756;9.246;2024-02-15T16:40:24;13.10;68.20
55648;DHT22;45266;48.756;9.246;2024-02-15T16:45:27;12.80;69.00
55648;DHT22;45266;48.756;9.246;2024-02-15T16:50:29;12.50;70.10
55648;DHT22;45266;48.756;9.246;2024-02-15T16:55:31;12.20;71.00
55648;DHT22;45266;48.756;9.246;2024-02-15T17:00:34;11.90;72.00
55648;DHT22;45266;48.756;9.246;2024-02-15T17:05:36;11.80;73.00
55648;DHT22;45266;48.756;9.246;2024-02-15T17:10:38;11.50;73.80
55648;DHT22;45266;48.756;9.246;2024-02-15T17:15:41;11.40;74.60
55648;DHT22;45266;48.756;9.246;2024-02-15T17:20:43;11.10;75.20
55648;DHT22;45266;48.756;9.246;2024-02-15T17:25:46;10.90;75.70
55648;DHT22;45266;48.756;9.246;2024-02-15T17:30:48;10.70;76.90
55648;DHT22;45266;48.756;9.246;2024-02-15T17:35:49;10.50;77.80
55648;DHT22;45266;48.756;9.246;2024-02-15T17:40:52;10.40;78.50
55648;DHT22;45266;48.756;9.246;2024-02-15T17:45:54;10.30;79.30
55648;DHT22;45266;48.756;9.246;2024-02-15T17:50:56;10.10;79.50
55648;DHT22;45266;48.756;9.246;2024-02-15T17:55:59;10.00;80.40
55648;DHT22;45266;48.756;9.246;2024-02-15T18:01:02;10.00;81.00
55648;DHT22;45266;48.756;9.246;2024-02-15T18:06:04;9.80;81.10
55648;DHT22;45266;48.756;9.246;2024-02-15T18:11:08;9.70;81.70
55648;DHT22;45266;48.756;9.246;2024-02-15T18:16:11;9.70;81.90
55648;DHT22;45266;48.756;9.246;2024-02-15T18:21:15;9.50;82.40
55648;DHT22;45266;48.756;9.246;2024-02-15T18:26:16;9.50;82.70
55648;DHT22;45266;48.756;9.246;2024-02-15T18:31:18;9.40;83.10
55648;DHT22;45266;48.756;9.246;2024-02-15T18:36:20;9.20;83.60
55648;DHT22;45266;48.756;9.246;2024-02-15T18:41:22;9.20;83.90
55648;DHT22;45266;48.756;9.246;2024-02-15T18:46:24;9.10;84.00
55648;DHT22;45266;48.756;9.246;2024-02-15T18:51:26;9.00;84.30
55648;DHT22;45266;48.756;9.246;2024-02-15T18:56:28;8.90;84.70
55648;DHT22;45266;48.756;9.246;2024-02-15T19:01:30;8.80;85.30
55648;DHT22;45266;48.756;9.246;2024-02-15T19:06:34;8.60;85.40
55648;DHT22;45266;48.756;9.246;2024-02-15T19:11:41;8.50;86.00
55648;DHT22;45266;48.756;9.246;2024-02-15T19:16:44;8.40;86.50
55648;DHT22;45266;48.756;9.246;2024-02-15T19:21:46;8.40;86.80
55648;DHT22;45266;48.756;9.246;2024-02-15T19:26:50;8.30;86.60
55648;DHT22;45266;48.756;9.246;2024-02-15T19:31:52;8.10;87.30
55648;DHT22;45266;48.756;9.246;2024-02-15T19:36:54;8.00;88.20
55648;DHT22;45266;48.756;9.246;2024-02-15T19:42:08;8.00;88.00
55648;DHT22;45266;48.756;9.246;2024-02-15T19:47:11;8.00;88.20
55648;DHT22;45266;48.756;9.246;2024-02-15T19:52:14;7.80;88.50
55648;DHT22;45266;48.756;9.246;2024-02-15T19:57:17;7.80;89.00
55648;DHT22;45266;48.756;9.246;2024-02-15T20:02:21;7.80;89.00
55648;DHT22;45266;48.756;9.246;2024-02-15T20:07:23;7.80;88.90
55648;DHT22;45266;48.756;9.246;2024-02-15T20:12:30;7.80;88.70
55648;DHT22;45266;48.756;9.246;2024-02-15T20:17:32;7.80;88.70
55648;DHT22;45266;48.756;9.246;2024-02-15T20:22:36;7.80;88.40
55648;DHT22;45266;48.756;9.246;2024-02-15T20:27:43;7.80;88.90
55648;DHT22;45266;48.756;9.246;2024-02-15T20:32:45;7.70;88.50
55648;DHT22;45266;48.756;9.246;2024-02-15T20:37:47;7.60;88.60
55648;DHT22;45266;48.756;9.246;2024-02-15T20:42:49;7.50;89.50
55648;DHT22;45266;48.756;9.246;2024-02-15T20:47:50;7.50;89.50
55648;DHT22;45266;48.756;9.246;2024-02-15T20:52:52;7.60;89.60
55648;DHT22;45266;48.756;9.246;2024-02-15T20:57:54;7.60;89.60
55648;DHT22;45266;48.756;9.246;2024-02-15T21:02:56;7.60;89.70
55648;DHT22;45266;48.756;9.246;2024-02-15T21:07:58;7.60;89.80
55648;DHT22;45266;48.756;9.246;2024-02-15T21:13:00;7.60;90.10
55648;DHT22;45266;48.756;9.246;2024-02-15T21:18:02;7.60;90.20
55648;DHT22;45266;48.756;9.246;2024-02-15T21:23:04;7.60;90.10
55648;DHT22;45266;48.756;9.246;2024-02-15T21:28:07;7.80;89.90
55648;DHT22;45266;48.756;9.246;2024-02-15T21:33:09;7.80;89.50
55648;DHT22;45266;48.756;9.246;2024-02-15T21:38:11;7.60;89.40
55648;DHT22;45266;48.756;9.246;2024-02-15T21:43:13;7.60;89.30
55648;DHT22;45266;48.756;9.246;2024-02-15T21:48:16;7.50;88.50
55648;DHT22;45266;48.756;9.246;2024-02-15T21:53:18;7.40;88.60
55648;DHT22;45266;48.756;9.246;2024-02-15T21:58:19;7.30;89.00
55648;DHT22;45266;48.756;9.246;2024-02-15T22:03:22;7.20;89.50
55648;DHT22;45266;48.756;9.246;2024-02-15T22:08:24;7.10;89.70
55648;DHT22;45266;48.756;9.246;2024-02-15T22:13:26;7.00;89.90
55648;DHT22;45266;48.756;9.246;2024-02-15T22:18:28;6.80;90.10
55648;DHT22;45266;48.756;9.246;2024-02-15T22:23:31;6.70;90.80
55648;DHT22;45266;48.756;9.246;2024-02-15T22:28:32;6.60;91.50
55648;DHT22;45266;48.756;9.246;2024-02-15T22:33:34;6.60;92.20
55648;DHT22;45266;48.756;9.246;2024-02-15T22:38:39;6.50;92.00
55648;DHT22;45266;48.756;9.246;2024-02-15T22:43:41;6.50;92.90
55648;DHT22;45266;48.756;9.246;2024-02-15T22:48:43;6.50;93.20
55648;DHT22;45266;48.756;9.246;2024-02-15T22:53:45;6.50;92.90
55648;DHT22;45266;48.756;9.246;2024-02-15T22:58:47;6.50;92.50
55648;DHT22;45266;48.756;9.246;2024-02-15T23:03:49;6.40;92.40
55648;DHT22;45266;48.756;9.246;2024-02-15T23:08:51;6.30;92.20
55648;DHT22;45266;48.756;9.246;2024-02-15T23:13:53;6.30;92.10
55648;DHT22;45266;48.756;9.246;2024-02-15T23:18:55;6.20;92.60
55648;DHT22;45266;48.756;9.246;2024-02-15T23:23:57;6.10;93.00
55648;DHT22;45266;48.756;9.246;2024-02-15T23:28:59;6.10;93.40
55648;DHT22;45266;48.756;9.246;2024-02-15T23:34:01;6.10;93.70
55648;DHT22;45266;48.756;9.246;2024-02-15T23:39:03;6.10;93.80
55648;DHT22;45266;48.756;9.246;2024-02-15T23:44:30;6.10;93.60
55648;DHT22;45266;48.756;9.246;2024-02-15T23:49:34;6.00;93.30
55648;DHT22;45266;48.756;9.246;2024-02-15T23:54:37;6.10;93.90
55648;DHT22;45266;48.756;9.246;2024-02-15T23:59:39;6.00;93.20
